Time;durP1;ratioP1;P1;durP2;ratioP2;P2;SDS_P1;SDS_P2;PMS_P1;PMS_P2;Temp;Humidity;BMP_temperature;BMP_pressure;BME280_temperature;BME280_humidity;BME280_pressure;Samples;Min_cycle;Max_cycle;Signal;HPM_P1;HPM_P2
2021/07/09 00:01:32;;;;;;;;;;;;;;;;;;;;;
2021/07/09 00:04:34;;;;;;;0.30;0.30;;;;;;;11.19;87.05;92839.06;6236114;22;20020;-95
2021/07/09 00:10:31;;;;;;;0.20;0.20;;;;;;;11.10;85.67;92835.50;6248754;22;20103;-94
2021/07/09 00:13:35;;;;;;;;;;;;;;;;;;;;;
2021/07/09 00:16:34;;;;;;;;;;;;;;;;;;;;;
2021/07/09 00:19:20;;;;;;;0.22;0.22;;;;;;;11.32;84.23;92827.91;6277249;22;20375;-93
2021/07/09 00:22:11;;;;;;;;;;;;;;;;;;;;;
2021/07/09 00:25:22;;;;;;;;;;;;;;;;;;;;;
2021/07/09 00:28:29;;;;;;;0.40;0.40;;;;;;;11.46;84.92;92852.38;6261685;22;20454;-93
2021/07/09 00:31:34;;;;;;;;;;;;;;;;;;;;;
2021/07/09 00:34:35;;;;;;;0.30;0.30;;;;;;;11.14;85.34;92816.34;6251929;22;20061;-92
2021/07/09 00:37:29;;;;;;;;;;;;;;;;;;;;;
2021/07/09 00:40:15;;;;;;;0.20;0.20;;;;;;;11.06;85.64;92826.69;6251868;22;20467;-92
2021/07/09 00:43:15;;;;;;;0.20;0.20;;;;;;;11.07;85.57;92828.22;6255774;22;20015;-92
2021/07/09 00:46:08;;;;;;;0.20;0.20;;;;;;;11.32;85.59;92869.06;6206376;22;20023;-93
2021/07/09 00:49:05;;;;;;;0.20;0.20;;;;;;;10.94;85.13;92820.00;6237817;22;20124;-92
2021/07/09 00:51:42;;;;;;;0.20;0.20;;;;;;;10.97;85.42;92829.13;6277656;22;20069;-93
2021/07/09 00:54:53;;;;;;;;;;;;;;;;;;;;;
2021/07/09 00:57:26;;;;;;;0.30;0.30;;;;;;;10.91;85.05;92825.78;6278133;22;20015;-94
2021/07/09 01:00:31;;;;;;;0.30;0.30;;;;;;;10.82;85.22;92814.34;6255326;22;20087;-93
2021/07/09 01:06:59;;;;;;;;;;;;;;;;;;;;;
2021/07/09 01:16:41;;;;;;;0.30;0.30;;;;;;;10.57;85.25;92794.47;6305959;22;20019;-94
2021/07/09 01:19:47;;;;;;;0.30;0.30;;;;;;;10.83;84.56;92832.41;6257433;22;20015;-93
2021/07/09 01:22:37;;;;;;;0.30;0.30;;;;;;;10.59;84.09;92795.75;6259209;22;20023;-92
2021/07/09 01:25:25;;;;;;;;;;;;;;;;;;;;;
2021/07/09 01:28:11;;;;;;;0.20;0.20;;;;;;;11.00;83.88;92815.47;6307272;22;20033;-94
2021/07/09 01:30:59;;;;;;;0.30;0.30;;;;;;;10.78;83.42;92787.16;6308410;22;20061;-93
2021/07/09 01:33:41;;;;;;;0.30;0.30;;;;;;;10.76;83.36;92789.28;6308144;22;20011;-93
2021/07/09 01:40:05;;;;;;;0.30;0.30;;;;;;;10.74;83.03;92796.63;6308183;22;20015;-92
2021/07/09 01:43:01;;;;;;;;;;;;;;;;;;;;;
2021/07/09 01:45:55;;;;;;;0.30;0.30;;;;;;;10.68;83.73;92801.16;6288054;22;20469;-92
2021/07/09 01:48:36;;;;;;;0.30;0.30;;;;;;;10.64;83.91;92792.28;6262336;22;20071;-93
2021/07/09 01:51:36;;;;;;;0.30;0.30;;;;;;;10.94;84.15;92851.44;6283026;22;20007;-93
2021/07/09 01:54:40;;;;;;;0.30;0.30;;;;;;;10.72;84.58;92814.47;6290329;22;20063;-93
2021/07/09 01:57:34;;;;;;;0.30;0.30;;;;;;;10.65;82.68;92804.34;6292847;22;20770;-93
2021/07/09 02:00:39;;;;;;;0.30;0.30;;;;;;;10.62;82.91;92797.81;6307424;22;20737;-93
2021/07/09 02:03:48;;;;;;;0.30;0.30;;;;;;;10.97;83.07;92852.72;6308651;22;20067;-94
2021/07/09 02:06:36;;;;;;;0.30;0.30;;;;;;;10.58;82.78;92794.19;6256028;22;20015;-92
2021/07/09 02:09:36;;;;;;;;;;;;;;;;;;;;;
2021/07/09 02:13:00;;;;;;;;;;;;;;;;;;;;;
2021/07/09 02:16:00;;;;;;;0.30;0.30;;;;;;;10.53;82.76;92796.84;6263089;22;20048;-94
2021/07/09 02:18:46;;;;;;;;;;;;;;;;;;;;;
2021/07/09 02:21:34;;;;;;;0.30;0.30;;;;;;;10.49;82.48;92793.25;6280574;22;20012;-93
2021/07/09 02:24:26;;;;;;;0.30;0.30;;;;;;;10.47;82.22;92805.84;6256905;22;20011;-92
2021/07/09 02:27:28;;;;;;;0.30;0.30;;;;;;;10.73;82.67;92843.00;6283218;22;20442;-94
2021/07/09 02:30:52;;;;;;;0.20;0.20;;;;;;;10.44;83.20;92798.50;6255566;22;20026;-93
2021/07/09 02:33:32;;;;;;;;;;;;;;;;;;;;;
2021/07/09 02:36:34;;;;;;;0.30;0.30;;;;;;;10.40;82.68;92798.31;6285328;22;20075;-94
2021/07/09 02:39:13;;;;;;;0.30;0.30;;;;;;;10.38;82.67;92804.84;6281147;22;20023;-94
2021/07/09 02:41:51;;;;;;;0.30;0.30;;;;;;;10.57;82.94;92846.81;6282091;22;20414;-93
2021/07/09 02:45:04;;;;;;;;;;;;;;;;;;;;;
2021/07/09 02:48:18;;;;;;;;;;;;;;;;;;;;;
2021/07/09 02:54:10;;;;;;;0.30;0.30;;;;;;;10.27;80.11;92824.28;6307668;22;20101;-93
2021/07/09 02:56:53;;;;;;;0.30;0.30;;;;;;;10.38;80.23;92852.75;6256719;22;20019;-93
2021/07/09 02:59:31;;;;;;;0.20;0.20;;;;;;;10.22;80.48;92827.72;6256451;22;20074;-94
2021/07/09 03:02:28;;;;;;;;;;;;;;;;;;;;;
2021/07/09 03:05:18;;;;;;;;;;;;;;;;;;;;;
2021/07/09 03:08:10;;;;;;;;;;;;;;;;;;;;;
2021/07/09 03:11:13;;;;;;;0.20;0.20;;;;;;;10.51;78.40;92853.16;6307300;22;20094;-91
2021/07/09 03:13:44;;;;;;;0.30;0.30;;;;;;;10.28;79.39;92818.00;6282309;22;20454;-92
2021/07/09 03:16:30;;;;;;;0.30;0.30;;;;;;;10.19;80.03;92809.97;6307026;22;20099;-93
2021/07/09 03:19:34;;;;;;;0.30;0.30;;;;;;;10.23;80.30;92824.06;6259279;22;20015;-93
2021/07/09 03:25:19;;;;;;;0.30;0.30;;;;;;;10.48;77.38;92841.41;6286855;22;20026;-92
2021/07/09 03:28:10;;;;;;;0.30;0.30;;;;;;;10.55;72.58;92820.91;6281974;22;20015;-93
2021/07/09 03:30:47;;;;;;;0.30;0.30;;;;;;;10.60;72.60;92796.53;6305751;22;20019;-92
2021/07/09 03:33:25;;;;;;;;;;;;;;;;;;;;;
2021/07/09 03:36:15;;;;;;;0.25;0.25;;;;;;;10.96;70.00;92810.00;6306062;22;20030;-94
2021/07/09 03:39:00;;;;;;;;;;;;;;;;;;;;;
2021/07/09 03:42:22;;;;;;;0.20;0.20;;;;;;;11.27;68.08;92807.00;6307887;22;20098;-92
2021/07/09 03:44:58;;;;;;;0.25;0.25;;;;;;;11.44;68.51;92823.03;6258897;22;20053;-92
2021/07/09 03:47:42;;;;;;;0.30;0.30;;;;;;;11.55;67.53;92815.81;6280770;22;20019;-92
2021/07/09 03:50:26;;;;;;;0.30;0.30;;;;;;;11.89;65.72;92856.81;6306042;22;20389;-95
2021/07/09 03:53:13;;;;;;;0.30;0.30;;;;;;;12.02;65.54;92858.72;6281570;22;20133;-91
2021/07/09 03:56:01;;;;;;;;;;;;;;;;;;;;;
2021/07/09 03:58:32;;;;;;;0.20;0.20;;;;;;;11.93;63.39;92820.28;6305595;22;20434;-93
2021/07/09 04:01:19;;;;;;;;;;;;;;;;;;;;;
2021/07/09 04:03:54;;;;;;;0.30;0.30;;;;;;;12.21;67.76;92863.94;6304581;22;20158;-93
2021/07/09 04:06:47;;;;;;;0.20;0.20;;;;;;;12.04;68.88;92864.44;6308808;22;20082;-93
2021/07/09 04:09:52;;;;;;;0.30;0.30;;;;;;;11.85;70.82;92867.06;6288410;22;20312;-94
2021/07/09 04:12:36;;;;;;;;;;;;;;;;;;;;;
2021/07/09 04:15:40;;;;;;;0.30;0.30;;;;;;;11.70;69.73;92875.13;6309950;22;20068;-93
2021/07/09 04:18:18;;;;;;;0.30;0.30;;;;;;;11.57;66.71;92839.13;6267880;22;20023;-93
2021/07/09 04:21:21;;;;;;;;;;;;;;;;;;;;;
2021/07/09 04:23:58;;;;;;;0.28;0.28;;;;;;;11.72;64.66;92827.66;6309173;22;20023;-91
2021/07/09 04:26:37;;;;;;;0.30;0.30;;;;;;;11.84;65.28;92827.97;6309412;22;20056;-92
2021/07/09 04:29:16;;;;;;;0.30;0.30;;;;;;;12.14;63.83;92836.50;6284203;22;20022;-92
2021/07/09 04:32:03;;;;;;;0.30;0.30;;;;;;;12.13;65.62;92838.34;6308497;22;20065;-93
2021/07/09 04:34:42;;;;;;;0.30;0.30;;;;;;;12.00;67.89;92836.44;6308909;22;20375;-93
2021/07/09 04:37:41;;;;;;;0.20;0.20;;;;;;;12.17;68.26;92868.19;6309617;22;20057;-93
2021/07/09 04:40:18;;;;;;;0.20;0.20;;;;;;;11.81;69.38;92829.34;6284108;22;20042;-93
2021/07/09 04:43:30;;;;;;;0.30;0.30;;;;;;;11.76;70.19;92826.03;6286947;22;20082;-95
2021/07/09 04:46:22;;;;;;;0.20;0.20;;;;;;;11.93;70.36;92863.03;6284411;22;20019;-93
2021/07/09 04:49:29;;;;;;;0.20;0.20;;;;;;;11.77;70.91;92836.22;6263334;22;20035;-92
2021/07/09 04:55:45;;;;;;;0.20;0.20;;;;;;;11.97;71.29;92863.25;6341652;22;20076;-80
2021/07/09 04:58:12;;;;;;;0.20;0.20;;;;;;;12.18;71.62;92885.50;6313533;22;20019;-83
2021/07/09 05:00:38;;;;;;;0.20;0.20;;;;;;;12.23;71.84;92888.06;6339679;22;20018;-81
2021/07/09 05:03:04;;;;;;;0.25;0.25;;;;;;;12.25;71.61;92880.69;6312764;22;20015;-81
2021/07/09 05:05:30;;;;;;;0.20;0.20;;;;;;;12.35;71.28;92899.97;6311230;22;20087;-80
2021/07/09 05:07:55;;;;;;;0.22;0.22;;;;;;;12.38;71.71;92892.28;6286624;22;20011;-80
2021/07/09 05:10:21;;;;;;;0.30;0.30;;;;;;;12.43;71.71;92892.22;6313219;22;20017;-78
2021/07/09 05:12:46;;;;;;;0.20;0.20;;;;;;;12.48;71.32;92889.50;6314466;22;20018;-80
2021/07/09 05:15:12;;;;;;;0.30;0.30;;;;;;;12.57;71.70;92902.75;6315084;22;20068;-80
2021/07/09 05:17:38;;;;;;;0.30;0.30;;;;;;;12.64;71.98;92903.16;6311195;22;20446;-80
2021/07/09 05:20:05;;;;;;;0.30;0.30;;;;;;;12.74;71.37;92906.66;6287208;22;20053;-79
2021/07/09 05:22:30;;;;;;;0.30;0.30;;;;;;;12.86;71.30;92905.16;6312121;22;20034;-79
2021/07/09 05:24:56;;;;;;;0.20;0.20;;;;;;;12.94;71.28;92910.81;6339500;22;19999;-78
2021/07/09 05:27:28;;;;;;;0.20;0.20;;;;;;;13.01;71.73;92898.84;6313007;22;20019;-75
2021/07/09 05:29:53;;;;;;;0.28;0.28;;;;;;;13.07;71.44;92899.53;6340225;22;20015;-79
2021/07/09 05:32:24;;;;;;;0.20;0.20;;;;;;;13.04;70.72;92894.88;6311642;22;20038;-81
2021/07/09 05:34:51;;;;;;;0.20;0.20;;;;;;;13.12;71.23;92902.06;6311932;22;20018;-81
2021/07/09 05:37:17;;;;;;;0.20;0.20;;;;;;;13.21;71.57;92904.78;6311180;22;20380;-80
2021/07/09 05:39:43;;;;;;;0.20;0.20;;;;;;;13.27;71.50;92908.91;6311395;22;20076;-78
2021/07/09 05:42:09;;;;;;;0.20;0.20;;;;;;;13.34;71.12;92904.06;6312279;22;20006;-80
2021/07/09 05:44:35;;;;;;;0.20;0.20;;;;;;;13.44;71.15;92903.88;6339057;22;20022;-78
2021/07/09 05:47:02;;;;;;;0.20;0.20;;;;;;;13.54;70.26;92908.13;6339836;22;20140;-81
2021/07/09 05:49:28;;;;;;;0.20;0.20;;;;;;;13.70;69.83;92908.59;6310569;22;20003;-81
2021/07/09 05:51:53;;;;;;;0.30;0.30;;;;;;;14.24;68.32;92916.69;6285784;22;20534;-81
2021/07/09 05:54:19;;;;;;;0.40;0.40;;;;;;;16.39;58.88;92922.41;6338699;22;20446;-81
2021/07/09 05:56:46;;;;;;;0.40;0.40;;;;;;;19.84;49.40;92912.13;6310824;22;20049;-81
2021/07/09 05:59:12;;;;;;;0.45;0.45;;;;;;;22.23;41.20;92911.53;6339132;22;20098;-80
2021/07/09 06:01:37;;;;;;;0.40;0.40;;;;;;;23.92;37.36;92901.28;6339257;22;19999;-81
2021/07/09 06:04:03;;;;;;;0.60;0.60;;;;;;;25.38;34.44;92903.50;6285341;22;20079;-80
2021/07/09 06:06:29;;;;;;;0.47;0.47;;;;;;;26.33;29.84;92894.63;6337549;22;20046;-80
2021/07/09 06:08:54;;;;;;;0.50;0.50;;;;;;;27.37;30.78;92900.44;6285155;22;20023;-79
2021/07/09 06:11:20;;;;;;;0.60;0.60;;;;;;;28.04;28.14;92900.88;6309778;22;20023;-79
2021/07/09 06:13:46;;;;;;;0.50;0.50;;;;;;;28.16;28.72;92900.47;6283957;22;20011;-80
2021/07/09 06:16:13;;;;;;;0.68;0.68;;;;;;;28.57;26.73;92897.31;6339047;22;20398;-80
2021/07/09 06:18:39;;;;;;;0.77;0.77;;;;;;;29.41;26.80;92901.97;6310833;22;20045;-79
2021/07/09 06:21:05;;;;;;;0.80;0.80;;;;;;;29.54;24.22;92888.78;6338108;22;20006;-81
2021/07/09 06:23:30;;;;;;;0.70;0.70;;;;;;;29.99;27.70;92905.06;6286763;22;20030;-78
2021/07/09 06:25:56;;;;;;;0.70;0.70;;;;;;;30.19;27.24;92899.09;6337268;22;20022;-80
2021/07/09 06:28:22;;;;;;;0.60;0.60;;;;;;;30.86;25.70;92902.28;6311318;22;20089;-79
2021/07/09 06:30:48;;;;;;;0.80;0.80;;;;;;;31.22;24.14;92899.91;6311865;22;20072;-79
2021/07/09 06:33:13;;;;;;;0.65;0.65;;;;;;;31.57;23.44;92899.84;6285375;22;20426;-76
2021/07/09 06:35:40;;;;;;;0.50;0.50;;;;;;;31.90;23.58;92901.63;6286448;22;20015;-78
2021/07/09 06:38:06;;;;;;;0.75;0.75;;;;;;;31.11;27.84;92907.38;6311607;22;20022;-79
2021/07/09 06:40:32;;;;;;;0.40;0.40;;;;;;;29.88;28.47;92907.06;6311755;22;20093;-78
2021/07/09 06:42:58;;;;;;;0.20;0.20;;;;;;;29.70;26.28;92907.22;6286630;22;20014;-79
2021/07/09 06:45:25;;;;;;;0.30;0.30;;;;;;;29.67;25.78;92910.66;6312069;22;20142;-81
2021/07/09 06:47:50;;;;;;;0.30;0.30;;;;;;;27.49;27.11;92901.97;6311019;22;20446;-79
2021/07/09 06:50:17;;;;;;;0.30;0.30;;;;;;;26.93;30.02;92904.16;6339511;22;20010;-79
2021/07/09 06:52:44;;;;;;;0.10;0.10;;;;;;;25.49;31.69;92910.47;6337805;22;20014;-79
2021/07/09 06:55:11;;;;;;;0.20;0.20;;;;;;;24.56;32.41;92917.47;6338927;22;20526;-80
2021/07/09 06:57:37;;;;;;;0.20;0.20;;;;;;;23.97;34.82;92911.66;6311645;22;20034;-81
2021/07/09 07:00:06;;;;;;;0.20;0.20;;;;;;;23.29;36.76;92910.56;6284813;22;20010;-81
2021/07/09 07:02:32;;;;;;;0.32;0.32;;;;;;;22.93;37.81;92909.88;6285850;22;20002;-81
2021/07/09 07:05:00;;;;;;;0.13;0.13;;;;;;;23.06;39.29;92908.63;6339674;22;20021;-80
2021/07/09 07:07:26;;;;;;;0.30;0.30;;;;;;;23.06;37.63;92911.31;6338886;22;20010;-81
2021/07/09 07:09:51;;;;;;;0.20;0.20;;;;;;;22.83;39.02;92905.91;6310836;22;20011;-79
2021/07/09 07:12:17;;;;;;;0.35;0.35;;;;;;;22.57;38.23;92914.53;6311457;22;20068;-79
2021/07/09 07:14:42;;;;;;;0.28;0.28;;;;;;;22.51;39.43;92909.81;6310568;22;20063;-81
2021/07/09 07:17:10;;;;;;;0.10;0.10;;;;;;;22.37;38.01;92904.97;6311241;22;19998;-79
2021/07/09 07:19:36;;;;;;;0.45;0.40;;;;;;;22.56;38.77;92910.31;6338034;22;20089;-80
2021/07/09 07:22:02;;;;;;;0.30;0.30;;;;;;;22.65;39.70;92910.09;6310273;22;20034;-78
2021/07/09 07:24:31;;;;;;;0.45;0.30;;;;;;;22.63;39.92;92910.47;6339027;22;20350;-80
2021/07/09 07:26:58;;;;;;;0.10;0.10;;;;;;;22.89;39.67;92919.72;6338825;22;20026;-80
2021/07/09 07:29:24;;;;;;;0.10;0.10;;;;;;;22.55;35.92;92902.66;6338290;22;20010;-79
2021/07/09 07:31:50;;;;;;;0.10;0.10;;;;;;;22.79;38.90;92909.63;6310562;22;20083;-79
2021/07/09 07:34:15;;;;;;;0.20;0.20;;;;;;;22.91;38.80;92917.47;6310643;22;20133;-80
2021/07/09 07:36:41;;;;;;;0.30;0.30;;;;;;;22.96;36.99;92906.50;6310791;22;20419;-81
2021/07/09 07:39:07;;;;;;;0.20;0.20;;;;;;;23.04;37.10;92913.56;6312364;22;20010;-81
2021/07/09 07:41:33;;;;;;;0.20;0.20;;;;;;;22.82;35.43;92915.00;6339552;22;20010;-77
2021/07/09 07:44:00;;;;;;;0.22;0.22;;;;;;;22.83;36.84;92918.44;6310832;22;20537;-81
2021/07/09 07:46:27;;;;;;;0.95;0.68;;;;;;;22.69;35.41;92918.94;6312065;22;20350;-80
2021/07/09 07:48:54;;;;;;;0.10;0.10;;;;;;;22.53;39.10;92912.91;6311222;22;20097;-80
2021/07/09 07:51:19;;;;;;;0.20;0.20;;;;;;;22.64;37.22;92908.56;6311629;22;20442;-80
2021/07/09 07:53:45;;;;;;;0.20;0.20;;;;;;;22.73;38.36;92911.78;6338726;22;20082;-81
2021/07/09 07:56:12;;;;;;;0.20;0.20;;;;;;;22.84;38.64;92923.44;6339110;22;20018;-81
2021/07/09 07:58:38;;;;;;;0.30;0.30;;;;;;;22.97;36.59;92917.97;6338476;22;20071;-81
2021/07/09 08:01:05;;;;;;;0.28;0.28;;;;;;;23.02;36.67;92923.81;6339795;22;19994;-81
2021/07/09 08:03:31;;;;;;;0.20;0.20;;;;;;;22.98;35.27;92916.84;6339162;22;20350;-81
2021/07/09 08:05:57;;;;;;;0.28;0.28;;;;;;;23.21;35.77;92920.31;6311998;22;20011;-80
2021/07/09 08:08:22;;;;;;;0.20;0.20;;;;;;;23.23;36.26;92915.41;6338420;22;20346;-80
2021/07/09 08:10:48;;;;;;;0.10;0.10;;;;;;;23.25;37.77;92912.38;6311092;22;20033;-81
2021/07/09 08:13:14;;;;;;;0.30;0.30;;;;;;;23.46;36.63;92915.44;6339783;22;20007;-80
2021/07/09 08:15:40;;;;;;;0.20;0.20;;;;;;;23.42;36.42;92916.50;6337526;22;20086;-79
2021/07/09 08:18:06;;;;;;;0.30;0.30;;;;;;;23.41;36.47;92918.38;6311192;22;20019;-81
2021/07/09 08:20:32;;;;;;;0.20;0.20;;;;;;;23.23;35.54;92912.75;6312110;22;20021;-81
2021/07/09 08:22:58;;;;;;;0.20;0.20;;;;;;;23.29;37.75;92915.91;6336779;22;20057;-81
2021/07/09 08:25:24;;;;;;;0.20;0.20;;;;;;;23.37;36.98;92909.56;6338454;22;20011;-81
2021/07/09 08:27:50;;;;;;;0.20;0.17;;;;;;;23.54;38.13;92910.22;6338106;22;20021;-81
2021/07/09 08:30:16;;;;;;;0.30;0.30;;;;;;;23.54;36.49;92918.22;6311035;22;20391;-81
2021/07/09 08:32:41;;;;;;;0.20;0.20;;;;;;;23.61;35.10;92926.34;6338076;22;20014;-78
2021/07/09 08:35:08;;;;;;;0.20;0.20;;;;;;;23.39;35.00;92909.19;6284878;22;20049;-79
2021/07/09 08:37:34;;;;;;;0.30;0.30;;;;;;;22.76;38.10;92921.75;6311143;22;20018;-79
2021/07/09 08:40:00;;;;;;;0.10;0.10;;;;;;;22.93;36.75;92915.22;6311099;22;20019;-79
2021/07/09 08:42:25;;;;;;;0.17;0.17;;;;;;;22.83;36.84;92915.78;6310634;22;20109;-81
2021/07/09 08:44:51;;;;;;;0.15;0.15;;;;;;;22.89;38.17;92914.38;6338217;22;20208;-84
2021/07/09 08:47:16;;;;;;;0.30;0.30;;;;;;;22.92;37.92;92916.38;6310822;22;20018;-82
2021/07/09 08:49:47;;;;;;;0.20;0.20;;;;;;;22.93;38.45;92909.88;6337745;22;20019;-82
2021/07/09 08:52:12;;;;;;;0.20;0.20;;;;;;;22.88;38.59;92918.19;6338859;22;20416;-82
2021/07/09 08:54:39;;;;;;;0.20;0.20;;;;;;;23.19;39.16;92927.16;6306685;22;20476;-80
2021/07/09 08:57:04;;;;;;;0.20;0.20;;;;;;;23.27;37.82;92929.59;6338562;22;20094;-82
2021/07/09 08:59:30;;;;;;;0.20;0.20;;;;;;;23.52;37.23;92928.50;6340155;22;19998;-78
2021/07/09 09:02:01;;;;;;;0.20;0.20;;;;;;;23.55;36.85;92922.44;6339421;22;20011;-81
2021/07/09 09:04:45;;;;;;;0.20;0.20;;;;;;;23.73;37.27;92936.84;6339591;22;20015;-83
2021/07/09 09:07:12;;;;;;;0.30;0.30;;;;;;;23.70;35.90;92929.56;6339926;22;20024;-82
2021/07/09 09:09:39;;;;;;;0.30;0.30;;;;;;;23.77;37.51;92923.59;6338622;22;20048;-81
2021/07/09 09:12:08;;;;;;;0.30;0.30;;;;;;;23.83;36.84;92933.63;6339355;22;20066;-80
2021/07/09 09:14:42;;;;;;;0.20;0.20;;;;;;;24.02;35.87;92930.06;6338831;22;20086;-81
2021/07/09 09:17:31;;;;;;;0.30;0.30;;;;;;;24.00;34.17;92936.91;6339142;22;20384;-81
2021/07/09 09:20:10;;;;;;;0.20;0.20;;;;;;;23.95;36.92;92946.00;6338166;22;20013;-80
2021/07/09 09:22:48;;;;;;;0.30;0.30;;;;;;;23.50;35.01;92936.84;6338955;22;20010;-81
2021/07/09 09:25:23;;;;;;;0.30;0.30;;;;;;;23.69;34.44;92938.72;6340561;22;20021;-81
2021/07/09 09:27:58;;;;;;;0.30;0.30;;;;;;;23.89;35.37;92958.94;6336137;22;20041;-79
2021/07/09 09:30:23;;;;;;;0.30;0.30;;;;;;;23.95;35.19;92939.91;6338781;22;20055;-81
2021/07/09 09:32:51;;;;;;;0.20;0.20;;;;;;;23.68;35.83;92945.19;6336507;22;20006;-82
2021/07/09 09:35:21;;;;;;;0.30;0.30;;;;;;;23.57;37.03;92942.31;6337483;22;20346;-80
2021/07/09 09:37:52;;;;;;;0.20;0.20;;;;;;;23.80;37.94;92949.59;6338779;22;20082;-81
2021/07/09 09:40:19;;;;;;;0.30;0.30;;;;;;;23.74;32.70;92946.44;6337260;22;20003;-81
2021/07/09 09:42:44;;;;;;;0.10;0.10;;;;;;;23.18;33.71;92944.31;6338175;22;20011;-80
2021/07/09 09:45:10;;;;;;;0.30;0.30;;;;;;;23.55;36.97;92954.50;6338770;22;20017;-81
2021/07/09 09:47:37;;;;;;;0.30;0.30;;;;;;;23.87;34.00;92944.38;6337610;22;20023;-79
2021/07/09 09:50:08;;;;;;;0.20;0.20;;;;;;;23.55;35.72;92943.81;6339294;22;20079;-82
2021/07/09 09:55:10;;;;;;;0.10;0.10;;;;;;;23.41;33.48;92955.78;6338458;22;20030;-82
2021/07/09 09:57:37;;;;;;;0.20;0.20;;;;;;;23.59;35.60;92960.69;6339056;22;20017;-81
2021/07/09 10:00:06;;;;;;;0.55;0.30;;;;;;;24.00;35.99;92947.63;6311914;22;20425;-82
2021/07/09 10:02:36;;;;;;;0.30;0.30;;;;;;;24.03;32.73;92952.25;6338387;22;20054;-82
2021/07/09 10:05:04;;;;;;;0.20;0.20;;;;;;;24.05;34.27;92952.69;6338609;22;20015;-82
2021/07/09 10:07:35;;;;;;;0.20;0.20;;;;;;;24.19;36.65;92944.09;6311578;22;20036;-82
2021/07/09 10:10:02;;;;;;;0.30;0.30;;;;;;;24.51;35.72;92947.22;6338145;22;20010;-83
2021/07/09 10:12:29;;;;;;;0.32;0.32;;;;;;;24.46;33.79;92940.25;6338518;22;19994;-82
2021/07/09 10:14:55;;;;;;;0.30;0.30;;;;;;;24.75;32.59;92939.91;6311017;22;20018;-83
2021/07/09 10:17:24;;;;;;;0.20;0.20;;;;;;;24.50;32.26;92943.78;6311393;22;20140;-82
2021/07/09 10:19:52;;;;;;;0.30;0.30;;;;;;;24.72;35.35;92933.34;6285014;22;20015;-80
2021/07/09 10:22:18;;;;;;;0.25;0.25;;;;;;;24.86;33.23;92935.44;6337019;22;20006;-77
2021/07/09 10:24:45;;;;;;;0.20;0.20;;;;;;;24.92;34.55;92937.41;6337909;22;20022;-77
2021/07/09 10:27:12;;;;;;;0.25;0.25;;;;;;;24.41;31.74;92929.09;6310553;22;20007;-77
2021/07/09 10:29:43;;;;;;;0.20;0.20;;;;;;;24.66;34.89;92935.59;6337763;22;20029;-79
2021/07/09 10:32:10;;;;;;;0.28;0.28;;;;;;;24.53;34.91;92936.94;6337531;22;20038;-78
2021/07/09 10:34:47;;;;;;;0.50;0.40;;;;;;;24.85;33.12;92931.97;6337858;22;20007;-76
2021/07/09 10:37:21;;;;;;;0.90;0.85;;;;;;;25.07;34.65;92930.31;6337701;22;20018;-77
2021/07/09 10:40:02;;;;;;;0.20;0.20;;;;;;;24.97;34.25;92941.69;6309020;22;20438;-76
2021/07/09 10:42:39;;;;;;;0.60;0.60;;;;;;;25.14;34.79;92929.63;6340544;22;20063;-75
2021/07/09 10:45:25;;;;;;;0.20;0.20;;;;;;;25.11;36.55;92936.50;6310787;22;20291;-77
2021/07/09 10:48:03;;;;;;;0.20;0.20;;;;;;;25.34;34.64;92928.31;6310277;22;20006;-77
2021/07/09 10:50:40;;;;;;;0.20;0.20;;;;;;;25.70;33.34;92925.22;6338069;22;20442;-78
2021/07/09 10:53:15;;;;;;;0.10;0.10;;;;;;;25.72;30.91;92926.38;6337769;22;20052;-77
2021/07/09 10:55:58;;;;;;;0.30;0.30;;;;;;;25.88;33.67;92926.16;6284553;22;20010;-78
2021/07/09 10:58:33;;;;;;;0.30;0.30;;;;;;;25.81;32.25;92925.31;6310645;22;20442;-78
2021/07/09 11:01:16;;;;;;;0.30;0.30;;;;;;;26.11;32.46;92927.84;6338965;22;20006;-78
2021/07/09 11:03:44;;;;;;;0.30;0.30;;;;;;;26.04;32.54;92915.16;6338228;22;20014;-76
2021/07/09 11:06:17;;;;;;;0.30;0.30;;;;;;;26.20;32.35;92920.25;6337993;22;20048;-77
2021/07/09 11:08:50;;;;;;;0.30;0.30;;;;;;;25.95;29.14;92918.16;6338714;22;20011;-78
2021/07/09 11:11:28;;;;;;;0.30;0.30;;;;;;;25.45;32.32;92923.06;6338383;22;20011;-79
2021/07/09 11:13:58;;;;;;;0.20;0.20;;;;;;;25.58;32.92;92922.78;6338925;22;20086;-78
2021/07/09 11:16:24;;;;;;;0.30;0.30;;;;;;;25.26;28.84;92915.22;6311113;22;20014;-78
2021/07/09 11:18:52;;;;;;;0.20;0.20;;;;;;;25.43;30.14;92922.66;6337385;22;19994;-75
2021/07/09 11:21:30;;;;;;;0.30;0.30;;;;;;;25.35;29.87;92907.66;6309954;22;20331;-78
2021/07/09 11:23:56;;;;;;;0.10;0.10;;;;;;;25.39;31.26;92921.09;6309829;22;20011;-77
2021/07/09 11:26:23;;;;;;;0.20;0.20;;;;;;;25.57;31.95;92921.25;6283889;22;20014;-77
2021/07/09 11:28:49;;;;;;;0.30;0.30;;;;;;;25.56;32.21;92920.50;6336673;22;20346;-78
2021/07/09 11:31:32;;;;;;;0.28;0.28;;;;;;;25.24;30.84;92909.47;6336401;22;20023;-77
2021/07/09 11:34:01;;;;;;;0.20;0.20;;;;;;;25.58;32.88;92918.22;6308981;22;20002;-77
2021/07/09 11:36:27;;;;;;;0.40;0.40;;;;;;;25.66;32.49;92911.00;6336968;22;20064;-77
2021/07/09 11:39:13;;;;;;;0.20;0.20;;;;;;;25.51;31.04;92908.22;6283538;22;20425;-77
2021/07/09 11:41:54;;;;;;;0.20;0.20;;;;;;;25.92;32.93;92910.84;6336541;22;20011;-78
2021/07/09 11:44:42;;;;;;;0.30;0.30;;;;;;;26.16;32.01;92919.44;6308335;22;20075;-80
2021/07/09 11:47:31;;;;;;;0.30;0.30;;;;;;;26.11;30.34;92907.16;6308463;22;20409;-80
2021/07/09 11:50:05;;;;;;;0.20;0.20;;;;;;;24.89;34.21;92899.91;6337285;22;20018;-77
2021/07/09 11:52:32;;;;;;;0.30;0.30;;;;;;;25.69;34.49;92910.25;6335752;22;20609;-77
2021/07/09 11:55:01;;;;;;;0.30;0.30;;;;;;;26.29;35.25;92906.50;6336528;22;20613;-78
2021/07/09 11:57:29;;;;;;;0.30;0.30;;;;;;;25.62;35.23;92910.19;6336806;22;20090;-77
2021/07/09 12:00:00;;;;;;;0.20;0.20;;;;;;;25.39;34.89;92905.78;6336026;22;20013;-78
2021/07/09 12:02:27;;;;;;;0.30;0.30;;;;;;;25.79;35.55;92906.91;6308853;22;20542;-78
2021/07/09 12:04:54;;;;;;;0.30;0.30;;;;;;;25.95;31.98;92904.75;6336500;22;20011;-78
2021/07/09 12:07:25;;;;;;;0.35;0.35;;;;;;;25.27;35.13;92898.03;6336100;22;20017;-78
2021/07/09 12:09:57;;;;;;;0.35;0.35;;;;;;;24.75;36.98;92892.47;6308809;22;20006;-79
2021/07/09 12:12:23;;;;;;;;;;;;;;;25.47;36.17;92893.25;6338813;22;20014;-79
2021/07/09 12:15:10;;;;;;;0.50;0.40;;;;;;;26.07;34.69;92895.63;6335667;22;19906;-80
2021/07/09 12:17:39;;;;;;;0.40;0.40;;;;;;;25.48;37.28;92897.44;6308598;22;20014;-79
2021/07/09 12:20:14;;;;;;;0.30;0.30;;;;;;;26.08;36.83;92896.41;6309367;22;20021;-79
2021/07/09 12:22:46;;;;;;;0.28;0.28;;;;;;;25.39;31.25;92900.44;6336460;22;20007;-77
2021/07/09 12:25:21;;;;;;;0.32;0.32;;;;;;;25.86;30.74;92898.91;6337669;22;20007;-78
2021/07/09 12:27:47;;;;;;;0.35;0.35;;;;;;;25.65;29.76;92890.72;6340038;22;20013;-79
2021/07/09 12:30:22;;;;;;;0.30;0.30;;;;;;;26.15;29.06;92891.09;6338482;22;20011;-79
2021/07/09 12:32:53;;;;;;;0.20;0.20;;;;;;;25.66;30.51;92892.22;6339172;22;20457;-79
2021/07/09 12:35:20;;;;;;;0.22;0.22;;;;;;;25.92;33.14;92892.09;6340321;22;20011;-79
2021/07/09 12:38:05;;;;;;;0.40;0.40;;;;;;;26.42;31.84;92888.16;6311813;22;20018;-78
2021/07/09 12:40:33;;;;;;;0.22;0.22;;;;;;;26.70;34.05;92882.94;6338564;22;20006;-78
2021/07/09 12:43:18;;;;;;;0.38;0.38;;;;;;;26.76;33.36;92891.41;6338761;22;20476;-79
2021/07/09 12:46:00;;;;;;;0.57;0.57;;;;;;;26.75;33.77;92896.03;6338558;22;20079;-79
2021/07/09 12:48:40;;;;;;;0.47;0.47;;;;;;;26.95;33.31;92891.09;6339531;22;20029;-78
2021/07/09 12:51:24;;;;;;;0.22;0.22;;;;;;;27.20;31.99;92885.81;6311188;22;20079;-78
2021/07/09 12:54:03;;;;;;;0.30;0.30;;;;;;;27.10;31.54;92886.53;6338112;22;20407;-79
2021/07/09 12:56:33;;;;;;;0.35;0.35;;;;;;;26.57;33.92;92887.13;6338964;22;20338;-79
2021/07/09 12:59:21;;;;;;;0.20;0.20;;;;;;;26.37;31.73;92892.75;6339223;22;20349;-77
2021/07/09 13:01:57;;;;;;;0.40;0.40;;;;;;;25.46;32.12;92891.69;6311655;22;20015;-79
2021/07/09 13:04:24;;;;;;;0.45;0.45;;;;;;;25.09;34.49;92893.22;6338775;22;20011;-78
2021/07/09 13:07:04;;;;;;;0.30;0.30;;;;;;;25.73;35.90;92884.25;6311482;22;20030;-79
2021/07/09 13:09:34;;;;;;;0.38;0.38;;;;;;;26.01;33.17;92886.41;6339310;22;20697;-78
2021/07/09 13:12:23;;;;;;;0.30;0.30;;;;;;;26.37;35.19;92881.25;6310485;22;20342;-76
2021/07/09 13:15:00;;;;;;;0.35;0.35;;;;;;;25.85;34.27;92885.84;6338279;22;20393;-79
2021/07/09 13:17:28;;;;;;;0.30;0.30;;;;;;;26.29;33.90;92875.06;6311066;22;20049;-78
2021/07/09 13:20:05;;;;;;;0.38;0.38;;;;;;;26.25;34.73;92874.25;6338017;22;20002;-77
2021/07/09 13:22:48;;;;;;;0.20;0.20;;;;;;;26.51;33.20;92864.44;6338871;22;20003;-79